createdAt,value
2017-10-05T00:01:54.709Z,11.56
2017-10-05T00:04:21.015Z,11.62
2017-10-05T00:06:47.755Z,11.62
2017-10-05T00:09:14.007Z,11.59
2017-10-05T00:11:40.243Z,11.59
2017-10-05T00:14:07.452Z,11.60
2017-10-05T00:16:34.478Z,11.57
2017-10-05T00:19:00.800Z,11.62
2017-10-05T00:21:27.086Z,11.58
2017-10-05T00:23:53.320Z,11.62
2017-10-05T00:26:19.557Z,11.51
2017-10-05T00:28:46.686Z,11.56
2017-10-05T00:31:12.922Z,11.45
2017-10-05T00:33:39.171Z,11.54
2017-10-05T00:36:06.205Z,11.61
2017-10-05T00:38:33.197Z,11.62
2017-10-05T00:40:59.423Z,11.54
2017-10-05T00:43:25.981Z,11.44
2017-10-05T00:45:52.232Z,11.58
2017-10-05T00:48:18.477Z,11.54
2017-10-05T00:50:45.697Z,11.66
2017-10-05T00:53:11.977Z,11.52
2017-10-05T00:55:39.059Z,11.72
2017-10-05T00:58:05.358Z,11.72
2017-10-05T01:00:31.637Z,11.90
2017-10-05T01:02:57.876Z,11.72
2017-10-05T01:05:24.147Z,11.94
2017-10-05T01:07:50.409Z,11.96
2017-10-05T01:10:16.642Z,12.02
2017-10-05T01:12:43.654Z,11.90
2017-10-05T01:15:09.918Z,11.92
2017-10-05T01:17:36.165Z,11.78
2017-10-05T01:20:02.655Z,11.94
2017-10-05T01:22:28.909Z,11.74
2017-10-05T01:24:55.169Z,11.75
2017-10-05T01:27:22.188Z,11.72
2017-10-05T01:29:48.457Z,11.76
2017-10-05T01:32:15.468Z,11.76
2017-10-05T01:34:41.722Z,11.74
2017-10-05T01:37:08.706Z,11.78
2017-10-05T01:39:34.997Z,11.79
2017-10-05T01:42:02.036Z,11.78
2017-10-05T01:44:28.298Z,11.80
2017-10-05T01:46:54.541Z,11.84
2017-10-05T01:49:20.853Z,11.84
2017-10-05T01:51:47.105Z,11.84
2017-10-05T01:54:13.347Z,11.82
2017-10-05T01:56:39.658Z,11.82
2017-10-05T01:59:05.884Z,11.84
2017-10-05T02:01:32.103Z,11.85
2017-10-05T02:03:58.340Z,11.84
2017-10-05T02:06:24.566Z,11.86
2017-10-05T02:08:50.817Z,11.85
2017-10-05T02:11:17.237Z,11.84
2017-10-05T02:13:43.465Z,11.82
2017-10-05T02:16:09.685Z,11.83
2017-10-05T02:18:35.963Z,11.82
2017-10-05T02:21:02.225Z,11.82
2017-10-05T02:23:28.480Z,11.82
2017-10-05T02:25:54.753Z,11.79
2017-10-05T02:28:20.986Z,11.80
2017-10-05T02:30:47.979Z,11.80
2017-10-05T02:33:14.232Z,11.79
2017-10-05T02:35:40.498Z,11.78
2017-10-05T02:38:07.505Z,11.79
2017-10-05T02:40:33.738Z,11.74
2017-10-05T02:42:59.962Z,11.74
2017-10-05T02:45:26.490Z,11.76
2017-10-05T02:47:52.724Z,11.73
2017-10-05T02:50:18.973Z,11.74
2017-10-05T02:52:45.525Z,11.69
2017-10-05T02:55:12.506Z,11.69
2017-10-05T02:57:38.736Z,11.68
2017-10-05T03:00:05.018Z,11.73
2017-10-05T03:02:31.997Z,11.70
2017-10-05T03:04:58.267Z,11.70
2017-10-05T03:07:24.497Z,11.69
2017-10-05T03:09:50.769Z,11.68
2017-10-05T03:12:17.797Z,11.65
2017-10-05T03:14:44.771Z,11.63
2017-10-05T03:17:11.006Z,11.62
2017-10-05T03:19:37.289Z,11.60
2017-10-05T03:22:03.525Z,11.60
2017-10-05T03:24:30.534Z,11.63
2017-10-05T03:26:56.808Z,11.61
2017-10-05T03:29:23.873Z,11.60
2017-10-05T03:31:50.318Z,11.60
2017-10-05T03:34:16.589Z,11.63
2017-10-05T03:36:42.838Z,11.59
2017-10-05T03:39:09.829Z,11.57
2017-10-05T03:41:36.401Z,11.58
2017-10-05T03:44:02.654Z,11.59
2017-10-05T03:46:29.665Z,11.58
2017-10-05T03:48:55.954Z,11.56
2017-10-05T03:51:22.225Z,11.55
2017-10-05T03:53:48.504Z,11.57
2017-10-05T03:56:14.889Z,11.54
2017-10-05T03:58:41.217Z,11.57
2017-10-05T04:01:07.459Z,11.56
2017-10-05T04:03:33.733Z,11.56
2017-10-05T04:05:59.962Z,11.54
2017-10-05T04:08:26.206Z,11.53
2017-10-05T04:10:52.869Z,11.51
2017-10-05T04:13:19.130Z,11.52
2017-10-05T04:15:46.136Z,11.53
2017-10-05T04:18:13.443Z,11.52
2017-10-05T04:20:39.685Z,11.53
2017-10-05T04:23:05.929Z,11.54
2017-10-05T04:25:32.278Z,11.53
2017-10-05T04:27:58.515Z,11.52
2017-10-05T04:30:24.737Z,11.51
2017-10-05T04:32:51.031Z,11.52
2017-10-05T04:35:17.302Z,11.53
2017-10-05T04:37:43.533Z,11.51
2017-10-05T04:40:09.859Z,11.51
2017-10-05T04:42:36.137Z,11.50
2017-10-05T04:45:02.409Z,11.52
2017-10-05T04:47:28.664Z,11.52
2017-10-05T04:49:54.994Z,11.53
2017-10-05T04:52:21.256Z,11.53
2017-10-05T04:54:47.500Z,11.52
2017-10-05T04:57:13.763Z,11.51
2017-10-05T04:59:40.062Z,11.51
2017-10-05T05:02:06.326Z,11.54
2017-10-05T05:04:32.578Z,11.53
2017-10-05T05:06:59.625Z,11.52
2017-10-05T05:09:26.591Z,11.56
2017-10-05T05:11:52.818Z,11.51
2017-10-05T05:14:19.065Z,11.54
2017-10-05T05:16:45.289Z,11.53
2017-10-05T05:19:11.523Z,11.54
2017-10-05T05:21:37.960Z,11.54
2017-10-05T05:24:04.209Z,11.54
2017-10-05T05:26:30.463Z,11.53
2017-10-05T05:28:56.922Z,11.54
2017-10-05T05:31:23.918Z,11.58
2017-10-05T05:33:50.177Z,11.55
2017-10-05T05:36:17.506Z,11.56
2017-10-05T05:38:43.766Z,11.57
2017-10-05T05:41:10.773Z,11.54
2017-10-05T05:43:37.065Z,11.57
2017-10-05T05:46:03.334Z,11.54
2017-10-05T05:48:29.586Z,11.53
2017-10-05T05:50:55.869Z,11.54
2017-10-05T05:53:22.155Z,11.54
2017-10-05T05:55:49.140Z,11.54
2017-10-05T05:58:15.417Z,11.57
2017-10-05T06:00:41.702Z,11.54
2017-10-05T06:03:08.089Z,11.54
2017-10-05T06:05:35.123Z,11.56
2017-10-05T06:08:01.410Z,11.56
2017-10-05T06:10:27.869Z,11.56
2017-10-05T06:12:54.144Z,11.58
2017-10-05T06:15:21.154Z,11.58
2017-10-05T06:17:47.435Z,11.56
2017-10-05T06:20:13.716Z,11.55
2017-10-05T06:22:39.953Z,11.56
2017-10-05T06:25:06.219Z,11.56
2017-10-05T06:27:32.474Z,11.58
2017-10-05T06:29:58.696Z,11.63
2017-10-05T06:32:24.969Z,11.61
2017-10-05T06:34:51.188Z,11.58
2017-10-05T06:37:17.433Z,11.60
2017-10-05T06:39:44.756Z,11.61
2017-10-05T06:42:10.980Z,11.61
2017-10-05T06:44:37.222Z,11.58
2017-10-05T06:47:03.509Z,11.61
2017-10-05T06:49:29.765Z,11.62
2017-10-05T06:51:56.005Z,11.61
2017-10-05T06:54:22.633Z,11.62
2017-10-05T06:56:48.871Z,11.63
2017-10-05T06:59:15.517Z,11.61
2017-10-05T07:01:41.882Z,11.61
2017-10-05T07:04:08.143Z,11.65
2017-10-05T07:06:34.385Z,11.63
2017-10-05T07:09:00.621Z,11.66
2017-10-05T07:11:26.861Z,11.66
2017-10-05T07:13:53.139Z,11.69
2017-10-05T07:16:19.369Z,11.70
2017-10-05T07:18:45.623Z,11.70
2017-10-05T07:21:12.618Z,11.72
2017-10-05T07:23:39.594Z,11.71
2017-10-05T07:26:05.835Z,11.75
2017-10-05T07:28:32.377Z,11.75
2017-10-05T07:30:58.922Z,11.75
2017-10-05T07:33:25.170Z,11.77
2017-10-05T07:35:51.677Z,11.79
2017-10-05T07:38:17.924Z,11.81
2017-10-05T07:40:44.158Z,11.84
2017-10-05T07:43:10.424Z,11.86
2017-10-05T07:45:38.331Z,11.86
2017-10-05T07:48:04.613Z,11.90
2017-10-05T07:50:30.863Z,11.86
2017-10-05T07:52:57.096Z,11.90
2017-10-05T07:55:23.321Z,11.90
2017-10-05T07:57:49.581Z,11.92
2017-10-05T08:00:15.939Z,11.93
2017-10-05T08:02:42.949Z,11.93
2017-10-05T08:05:09.210Z,11.97
2017-10-05T08:07:36.207Z,11.96
2017-10-05T08:10:02.861Z,11.99
2017-10-05T08:12:29.091Z,11.98
2017-10-05T08:14:55.310Z,11.96
2017-10-05T08:17:21.744Z,11.99
2017-10-05T08:19:47.965Z,12.01
2017-10-05T08:22:14.199Z,12.02
2017-10-05T08:24:40.637Z,12.04
2017-10-05T08:27:06.984Z,12.06
2017-10-05T08:29:34.709Z,12.04
2017-10-05T08:32:01.186Z,12.10
2017-10-05T08:34:27.464Z,12.12
2017-10-05T08:36:53.802Z,12.14
2017-10-05T08:39:20.294Z,12.12
2017-10-05T08:41:47.488Z,12.17
2017-10-05T08:44:13.801Z,12.18
2017-10-05T08:46:40.967Z,12.24
2017-10-05T08:49:08.327Z,12.25
2017-10-05T08:51:34.662Z,12.26
2017-10-05T08:54:01.008Z,12.30
2017-10-05T08:56:27.313Z,12.33
2017-10-05T08:58:53.589Z,12.35
2017-10-05T09:01:20.767Z,12.39
2017-10-05T09:03:47.314Z,12.45
2017-10-05T09:06:13.718Z,12.47
2017-10-05T09:08:41.263Z,12.56
2017-10-05T09:11:07.861Z,12.58
2017-10-05T09:13:34.142Z,12.62
2017-10-05T09:16:01.567Z,12.69
2017-10-05T09:18:27.854Z,12.76
2017-10-05T09:20:55.111Z,12.82
2017-10-05T09:23:21.403Z,12.84
2017-10-05T09:25:47.917Z,12.92
2017-10-05T09:28:14.142Z,12.99
2017-10-05T09:30:40.370Z,13.04
2017-10-05T09:33:06.938Z,13.10
2017-10-05T09:35:33.914Z,13.13
2017-10-05T09:38:00.154Z,13.19
2017-10-05T09:40:32.119Z,13.22
2017-10-05T09:42:58.435Z,13.30
2017-10-05T09:48:31.227Z,13.40
2017-10-05T09:50:58.385Z,13.40
2017-10-05T09:53:26.206Z,13.46
2017-10-05T09:55:52.610Z,13.52
2017-10-05T09:58:27.254Z,13.54
2017-10-05T10:00:59.684Z,13.59
2017-10-05T10:03:27.125Z,13.65
2017-10-05T10:05:57.123Z,13.70
2017-10-05T10:08:24.724Z,13.77
2017-10-05T10:10:51.075Z,13.81
2017-10-05T10:13:17.323Z,13.89
2017-10-05T10:15:43.653Z,13.97
2017-10-05T10:18:09.939Z,13.99
2017-10-05T10:20:36.209Z,14.09
2017-10-05T10:23:02.658Z,14.06
2017-10-05T10:25:29.192Z,14.11
2017-10-05T10:27:56.233Z,14.16
2017-10-05T10:30:22.542Z,14.17
2017-10-05T10:32:49.335Z,14.24
2017-10-05T10:35:15.624Z,14.24
2017-10-05T10:37:42.310Z,14.25
2017-10-05T10:40:08.606Z,14.28
2017-10-05T10:42:35.853Z,14.38
2017-10-05T10:45:02.219Z,14.36
2017-10-05T10:47:29.005Z,14.40
2017-10-05T10:49:55.283Z,14.40
2017-10-05T10:52:22.627Z,14.45
2017-10-05T10:54:50.770Z,14.46
2017-10-05T10:57:17.477Z,14.49
2017-10-05T10:59:43.723Z,14.51
2017-10-05T11:02:10.706Z,14.52
2017-10-05T11:04:37.778Z,14.58
2017-10-05T11:07:04.025Z,14.61
2017-10-05T11:09:30.267Z,14.60
2017-10-05T11:11:56.495Z,14.53
2017-10-05T11:14:23.141Z,14.49
2017-10-05T11:16:49.374Z,14.51
2017-10-05T11:19:15.597Z,14.47
2017-10-05T11:21:41.863Z,14.38
2017-10-05T11:24:08.833Z,14.34
2017-10-05T11:26:35.062Z,14.11
2017-10-05T11:29:01.641Z,13.04
2017-10-05T11:31:27.891Z,12.11
2017-10-05T11:33:54.122Z,11.69
2017-10-05T11:36:20.629Z,11.61
2017-10-05T11:38:46.856Z,11.29
2017-10-05T11:41:13.435Z,11.06
2017-10-05T11:43:40.850Z,10.63
2017-10-05T11:46:07.086Z,10.42
2017-10-05T11:48:33.450Z,10.35
2017-10-05T11:51:00.049Z,10.20
2017-10-05T11:53:26.295Z,10.26
2017-10-05T11:55:53.073Z,10.19
2017-10-05T11:58:19.346Z,10.24
2017-10-05T12:00:45.599Z,10.07
2017-10-05T12:03:12.590Z,10.03
2017-10-05T12:05:39.347Z,9.93
2017-10-05T12:08:05.673Z,9.78
2017-10-05T12:10:31.911Z,9.70
2017-10-05T12:12:58.211Z,9.63
2017-10-05T12:15:24.454Z,9.57
2017-10-05T12:17:50.691Z,9.61
2017-10-05T12:20:16.972Z,9.50
2017-10-05T12:22:43.960Z,9.54
2017-10-05T12:25:10.182Z,9.45
2017-10-05T12:27:36.434Z,9.47
2017-10-05T12:30:02.715Z,9.59
2017-10-05T12:32:28.961Z,9.61
2017-10-05T12:34:55.599Z,9.69
2017-10-05T12:37:22.110Z,9.55
2017-10-05T12:39:49.385Z,9.68
2017-10-05T12:42:15.954Z,9.97
2017-10-05T12:44:42.442Z,10.11
2017-10-05T12:47:08.966Z,10.03
2017-10-05T12:49:35.989Z,9.93
2017-10-05T12:52:02.606Z,10.19
2017-10-05T12:54:30.106Z,10.14
2017-10-05T12:56:57.113Z,10.15
2017-10-05T12:59:23.358Z,10.30
2017-10-05T13:01:49.586Z,10.47
2017-10-05T13:04:15.870Z,10.43
2017-10-05T13:06:42.130Z,10.32
2017-10-05T13:09:08.522Z,10.36
2017-10-05T13:11:35.074Z,10.85
2017-10-05T13:14:01.450Z,11.11
2017-10-05T13:16:28.430Z,11.37
2017-10-05T13:18:54.776Z,11.71
2017-10-05T13:21:21.161Z,11.48
2017-10-05T13:23:48.769Z,11.59
2017-10-05T13:26:16.078Z,11.46
2017-10-05T13:28:43.058Z,11.62
2017-10-05T13:31:09.304Z,11.54
2017-10-05T13:33:35.575Z,11.87
2017-10-05T13:36:02.571Z,12.29
2017-10-05T13:38:28.827Z,12.68
2017-10-05T13:40:55.415Z,13.05
2017-10-05T13:43:21.638Z,12.77
2017-10-05T13:45:47.870Z,12.23
2017-10-05T13:48:14.365Z,12.21
2017-10-05T13:50:40.591Z,12.16
2017-10-05T13:53:06.822Z,12.10
2017-10-05T13:55:33.846Z,11.90
2017-10-05T13:58:00.091Z,11.81
2017-10-05T14:00:26.331Z,11.54
2017-10-05T14:02:52.737Z,11.63
2017-10-05T14:05:18.978Z,11.46
2017-10-05T14:07:45.236Z,11.64
2017-10-05T14:10:12.264Z,11.90
2017-10-05T14:12:39.245Z,11.87
2017-10-05T14:15:05.479Z,11.98
2017-10-05T14:17:31.747Z,12.02
2017-10-05T14:19:58.047Z,12.11
2017-10-05T14:22:24.483Z,12.26
2017-10-05T14:24:51.103Z,12.10
2017-10-05T14:27:17.572Z,12.40
2017-10-05T14:29:43.987Z,12.31
2017-10-05T14:32:10.286Z,12.19
2017-10-05T14:34:36.584Z,12.00
2017-10-05T14:37:02.853Z,12.05
2017-10-05T14:39:29.130Z,12.05
2017-10-05T14:41:55.407Z,12.04
2017-10-05T14:44:21.679Z,11.98
2017-10-05T14:46:47.990Z,12.06
2017-10-05T14:49:14.264Z,11.90
2017-10-05T14:51:40.518Z,11.89
2017-10-05T14:54:06.816Z,11.87
2017-10-05T14:56:33.111Z,11.77
2017-10-05T14:58:59.407Z,11.76
2017-10-05T15:01:25.707Z,11.95
2017-10-05T15:03:51.965Z,11.91
2017-10-05T15:06:18.938Z,11.95
2017-10-05T15:08:45.494Z,12.04
2017-10-05T15:11:12.474Z,12.07
2017-10-05T15:13:39.441Z,12.03
2017-10-05T15:16:05.829Z,11.91
2017-10-05T15:18:32.086Z,12.00
2017-10-05T15:20:59.289Z,12.01
2017-10-05T15:23:25.568Z,12.03
2017-10-05T15:25:52.561Z,12.05
2017-10-05T15:28:18.877Z,11.92
2017-10-05T15:30:45.327Z,12.00
2017-10-05T15:33:12.371Z,11.70
2017-10-05T15:35:39.020Z,11.69
2017-10-05T15:38:06.008Z,11.75
2017-10-05T15:40:33.003Z,11.70
2017-10-05T15:42:59.649Z,11.76
2017-10-05T15:45:25.887Z,11.76
2017-10-05T15:47:52.109Z,11.73
2017-10-05T15:50:18.643Z,11.78
2017-10-05T15:52:44.874Z,11.93
2017-10-05T15:55:11.118Z,11.84
2017-10-05T15:57:37.483Z,11.79
2017-10-05T16:00:03.977Z,11.65
2017-10-05T16:02:30.294Z,11.80
2017-10-05T16:04:56.542Z,11.69
2017-10-05T16:07:23.194Z,11.63
2017-10-05T16:09:50.553Z,11.58
2017-10-05T16:12:17.571Z,11.60
2017-10-05T16:14:44.098Z,11.61
2017-10-05T16:17:10.910Z,11.62
2017-10-05T16:19:37.147Z,11.52
2017-10-05T16:22:03.402Z,11.64
2017-10-05T16:24:29.682Z,11.73
2017-10-05T16:26:55.907Z,12.14
2017-10-05T16:29:22.150Z,11.98
2017-10-05T16:31:48.614Z,11.59
2017-10-05T16:34:15.211Z,11.69
2017-10-05T16:36:41.451Z,11.51
2017-10-05T16:39:07.806Z,11.83
2017-10-05T16:41:34.316Z,11.51
2017-10-05T16:44:00.591Z,11.54
2017-10-05T16:46:27.750Z,11.70
2017-10-05T16:48:54.034Z,12.25
2017-10-05T16:51:20.359Z,12.19
2017-10-05T16:53:46.690Z,12.27
2017-10-05T16:56:12.933Z,12.10
2017-10-05T16:58:39.361Z,12.04
2017-10-05T17:01:05.906Z,11.92
2017-10-05T17:03:32.232Z,11.86
2017-10-05T17:05:58.490Z,11.88
2017-10-05T17:08:24.775Z,11.73
2017-10-05T17:10:51.022Z,11.83
2017-10-05T17:13:17.273Z,11.53
2017-10-05T17:15:44.024Z,11.40
2017-10-05T17:18:10.362Z,11.36
2017-10-05T17:20:37.342Z,11.27
2017-10-05T17:23:03.598Z,11.30
2017-10-05T17:25:29.826Z,11.53
2017-10-05T17:27:56.089Z,11.54
2017-10-05T17:30:23.079Z,11.52
2017-10-05T17:32:49.755Z,11.43
2017-10-05T17:35:16.027Z,11.21
2017-10-05T17:37:42.273Z,11.21
2017-10-05T17:40:08.505Z,11.20
2017-10-05T17:42:35.713Z,11.08
2017-10-05T17:45:02.031Z,11.02
2017-10-05T17:47:28.828Z,11.17
2017-10-05T17:49:55.340Z,11.07
2017-10-05T17:52:21.738Z,11.06
2017-10-05T17:54:47.975Z,11.00
2017-10-05T17:57:14.991Z,11.13
2017-10-05T17:59:41.247Z,11.22
2017-10-05T18:02:08.239Z,11.40
2017-10-05T18:04:34.525Z,11.48
2017-10-05T18:07:00.962Z,11.17
2017-10-05T18:09:27.946Z,11.45
2017-10-05T18:11:54.251Z,11.30
2017-10-05T18:14:20.485Z,11.26
2017-10-05T18:16:46.734Z,11.06
2017-10-05T18:19:13.293Z,11.08
2017-10-05T18:21:39.522Z,10.95
2017-10-05T18:24:05.756Z,10.84
2017-10-05T18:26:32.122Z,10.95
2017-10-05T18:28:59.103Z,10.80
2017-10-05T18:31:25.352Z,10.82
2017-10-05T18:33:51.791Z,10.69
2017-10-05T18:36:18.027Z,10.72
2017-10-05T18:38:44.261Z,11.03
2017-10-05T18:41:10.537Z,11.09
2017-10-05T18:43:36.774Z,10.78
2017-10-05T18:46:03.021Z,11.14
2017-10-05T18:48:29.568Z,10.78
2017-10-05T18:50:55.814Z,10.85
2017-10-05T18:53:22.080Z,10.72
2017-10-05T18:55:48.548Z,10.71
2017-10-05T18:58:14.791Z,10.69
2017-10-05T19:00:41.045Z,10.90
2017-10-05T19:03:08.103Z,10.79
2017-10-05T19:05:34.388Z,10.75
2017-10-05T19:08:00.622Z,10.80
2017-10-05T19:10:26.907Z,10.86
2017-10-05T19:12:53.148Z,10.89
2017-10-05T19:15:19.410Z,10.88
2017-10-05T19:17:45.959Z,10.89
2017-10-05T19:20:12.206Z,10.95
2017-10-05T19:22:39.208Z,11.28
2017-10-05T19:25:05.515Z,10.93
2017-10-05T19:27:31.759Z,10.96
2017-10-05T19:29:58.134Z,10.88
2017-10-05T19:32:25.147Z,10.84
2017-10-05T19:34:51.391Z,10.82
2017-10-05T19:37:17.643Z,10.80
2017-10-05T19:39:44.955Z,10.69
2017-10-05T19:42:11.220Z,10.68
2017-10-05T19:44:38.253Z,10.63
2017-10-05T19:47:04.776Z,10.65
2017-10-05T19:49:37.251Z,10.67
2017-10-05T19:52:03.499Z,10.69
2017-10-05T19:54:30.727Z,10.70
2017-10-05T19:56:56.983Z,10.79
2017-10-05T19:59:23.966Z,10.93
2017-10-05T20:01:50.267Z,10.83
2017-10-05T20:04:17.450Z,11.35
2017-10-05T20:06:43.744Z,10.84
2017-10-05T20:09:11.204Z,10.74
2017-10-05T20:11:38.202Z,10.77
2017-10-05T20:14:11.482Z,11.04
2017-10-05T20:16:39.953Z,10.83
2017-10-05T20:25:06.451Z,10.73
2017-10-05T20:30:45.874Z,10.78
2017-10-05T20:33:12.175Z,11.29
2017-10-05T20:35:39.158Z,10.81
2017-10-05T20:38:05.480Z,10.76
2017-10-05T20:40:31.924Z,10.75
2017-10-05T20:42:59.165Z,10.77
2017-10-05T20:45:25.908Z,10.74
2017-10-05T20:47:52.183Z,10.71
2017-10-05T20:50:18.679Z,10.73
2017-10-05T20:52:44.954Z,10.70
2017-10-05T20:55:11.476Z,10.71
2017-10-05T20:57:37.799Z,10.67
2017-10-05T21:00:04.047Z,10.68
2017-10-05T21:02:30.335Z,10.70
2017-10-05T21:04:56.776Z,10.66
2017-10-05T21:07:23.120Z,10.67
2017-10-05T21:09:49.634Z,10.65
2017-10-05T21:12:15.878Z,10.62
2017-10-05T21:14:42.148Z,10.63
2017-10-05T21:17:09.334Z,10.63
2017-10-05T21:19:35.627Z,10.63
2017-10-05T21:22:02.879Z,10.64
2017-10-05T21:24:30.199Z,10.61
2017-10-05T21:26:56.441Z,10.60
2017-10-05T21:29:22.980Z,10.59
2017-10-05T21:31:49.982Z,10.59
2017-10-05T21:34:16.246Z,10.56
2017-10-05T21:36:42.980Z,10.55
2017-10-05T21:39:09.231Z,10.58
2017-10-05T21:41:35.459Z,10.56
2017-10-05T21:44:01.719Z,10.56
2017-10-05T21:46:27.973Z,10.50
2017-10-05T21:48:54.243Z,10.45
2017-10-05T21:51:20.590Z,10.43
2017-10-05T21:53:47.573Z,10.43
2017-10-05T21:56:13.836Z,10.41
2017-10-05T21:58:40.112Z,10.38
2017-10-05T22:01:06.376Z,10.35
2017-10-05T22:03:32.658Z,10.33
2017-10-05T22:05:58.912Z,10.33
2017-10-05T22:08:25.188Z,10.34
2017-10-05T22:10:51.435Z,10.40
2017-10-05T22:13:18.488Z,10.45
2017-10-05T22:15:45.459Z,10.44
2017-10-05T22:18:11.694Z,10.43
2017-10-05T22:20:38.079Z,10.45
2017-10-05T22:23:05.076Z,10.43
2017-10-05T22:25:31.440Z,10.40
2017-10-05T22:27:57.744Z,10.42
2017-10-05T22:30:23.987Z,10.42
2017-10-05T22:32:50.226Z,10.43
2017-10-05T22:35:16.480Z,10.47
2017-10-05T22:37:43.475Z,10.42
2017-10-05T22:40:09.735Z,10.43
2017-10-05T22:42:36.254Z,10.40
2017-10-05T22:45:02.540Z,10.36
2017-10-05T22:47:28.765Z,10.36
2017-10-05T22:49:55.065Z,10.34
2017-10-05T22:52:22.047Z,10.30
2017-10-05T22:54:48.315Z,10.26
2017-10-05T22:57:14.602Z,10.29
2017-10-05T22:59:40.826Z,10.29
2017-10-05T23:02:07.080Z,10.27
2017-10-05T23:04:33.340Z,10.29
2017-10-05T23:06:59.568Z,10.29
2017-10-05T23:09:26.025Z,10.31
2017-10-05T23:11:53.015Z,10.30
2017-10-05T23:14:19.255Z,10.32
2017-10-05T23:16:45.520Z,10.35
2017-10-05T23:19:12.498Z,10.38
2017-10-05T23:21:38.738Z,10.41
2017-10-05T23:24:04.987Z,10.44
2017-10-05T23:26:31.250Z,10.46
2017-10-05T23:28:58.505Z,10.50
2017-10-05T23:31:25.531Z,10.53
2017-10-05T23:33:51.776Z,10.55
2017-10-05T23:36:19.011Z,10.56
2017-10-05T23:38:45.255Z,10.62
2017-10-05T23:41:11.499Z,10.58
2017-10-05T23:43:38.528Z,10.58
2017-10-05T23:46:04.769Z,10.79
2017-10-05T23:48:31.763Z,10.87
2017-10-05T23:50:58.510Z,10.72
2017-10-05T23:53:24.759Z,10.61
2017-10-05T23:55:51.000Z,10.62
2017-10-05T23:58:17.998Z,10.60
